Lillis, Kansas
Current Conditions -  °F | °C
As of 2:55 PM on Friday 31 Oct 2014 (Local Time) from KMYZ Reporting Station
Clear Clear  
Wind Chill: 39°   Ceiling: Unl
Heat Index: 43°   Visibility: 10mi
Dew Point: 18°   Wind: 7mph
Humidity: 36%   Direction: 10°N
Pressure: 30.49"   Gusts: NA
Location:  39.7199°N, 96.4404°W
Report Text: KMYZ 311955Z AUTO 01006KT 10SM CLR 06/M08 A3049 RMK AO2
Loading
Personal Weather Stations






























Interactive Weather Map
Tropical Storm Tracking
New forecast layout! Learn more

10-Day Weather Forecast

Advertisements
Track Severe Weather on mobile